sensor_id;sensor_type;location;lat;lon;timestamp;temperature;humidity
774;DHT22;370;48.810;9.150;2023-05-19T00:01:22;12.50;1.00
774;DHT22;370;48.810;9.150;2023-05-19T00:03:50;12.40;1.00
774;DHT22;370;48.810;9.150;2023-05-19T00:06:21;12.30;1.00
774;DHT22;370;48.810;9.150;2023-05-19T00:08:49;12.20;1.00
774;DHT22;370;48.810;9.150;2023-05-19T00:11:20;12.20;1.00
774;DHT22;370;48.810;9.150;2023-05-19T00:17:11;12.20;1.00
774;DHT22;370;48.810;9.150;2023-05-19T00:19:38;12.20;1.00
774;DHT22;370;48.810;9.150;2023-05-19T00:22:05;12.20;1.00
774;DHT22;370;48.810;9.150;2023-05-19T00:24:33;12.20;1.00
774;DHT22;370;48.810;9.150;2023-05-19T00:27:00;12.20;1.00
774;DHT22;370;48.810;9.150;2023-05-19T00:29:27;12.20;1.00
774;DHT22;370;48.810;9.150;2023-05-19T00:31:55;12.20;1.00
774;DHT22;370;48.810;9.150;2023-05-19T00:34:23;12.30;1.00
774;DHT22;370;48.810;9.150;2023-05-19T00:36:50;12.30;1.00
774;DHT22;370;48.810;9.150;2023-05-19T00:42:39;12.30;1.00
774;DHT22;370;48.810;9.150;2023-05-19T00:45:07;12.30;1.00
774;DHT22;370;48.810;9.150;2023-05-19T00:47:34;12.30;1.00
774;DHT22;370;48.810;9.150;2023-05-19T00:50:02;12.30;1.00
774;DHT22;370;48.810;9.150;2023-05-19T00:52:29;12.30;1.00
774;DHT22;370;48.810;9.150;2023-05-19T00:54:56;12.20;1.00
774;DHT22;370;48.810;9.150;2023-05-19T00:57:23;12.30;1.00
774;DHT22;370;48.810;9.150;2023-05-19T00:59:51;12.20;1.00
774;DHT22;370;48.810;9.150;2023-05-19T01:02:18;12.20;1.00
774;DHT22;370;48.810;9.150;2023-05-19T01:04:45;12.20;1.00
774;DHT22;370;48.810;9.150;2023-05-19T01:07:15;12.20;1.00
774;DHT22;370;48.810;9.150;2023-05-19T01:13:00;12.20;1.00
774;DHT22;370;48.810;9.150;2023-05-19T01:15:29;12.20;1.00
774;DHT22;370;48.810;9.150;2023-05-19T01:18:02;12.20;1.00
774;DHT22;370;48.810;9.150;2023-05-19T01:20:35;12.10;1.00
774;DHT22;370;48.810;9.150;2023-05-19T01:23:19;12.20;1.00
774;DHT22;370;48.810;9.150;2023-05-19T01:29:07;12.20;1.00
774;DHT22;370;48.810;9.150;2023-05-19T01:31:43;12.20;1.00
774;DHT22;370;48.810;9.150;2023-05-19T01:34:12;12.20;1.00
774;DHT22;370;48.810;9.150;2023-05-19T01:36:41;12.30;1.00
774;DHT22;370;48.810;9.150;2023-05-19T01:39:09;12.30;1.00
774;DHT22;370;48.810;9.150;2023-05-19T01:41:38;12.20;1.00
774;DHT22;370;48.810;9.150;2023-05-19T01:44:07;12.30;1.00
774;DHT22;370;48.810;9.150;2023-05-19T01:46:34;12.20;1.00
774;DHT22;370;48.810;9.150;2023-05-19T01:49:03;12.20;1.00
774;DHT22;370;48.810;9.150;2023-05-19T01:51:30;12.20;1.00
774;DHT22;370;48.810;9.150;2023-05-19T01:53:57;12.30;1.00
774;DHT22;370;48.810;9.150;2023-05-19T01:56:33;12.20;1.00
774;DHT22;370;48.810;9.150;2023-05-19T01:59:15;12.20;1.00
774;DHT22;370;48.810;9.150;2023-05-19T02:01:50;12.10;1.00
774;DHT22;370;48.810;9.150;2023-05-19T02:04:27;12.10;1.00
774;DHT22;370;48.810;9.150;2023-05-19T02:07:01;12.00;1.00
774;DHT22;370;48.810;9.150;2023-05-19T02:09:43;12.00;1.00
774;DHT22;370;48.810;9.150;2023-05-19T02:12:18;11.90;1.00
774;DHT22;370;48.810;9.150;2023-05-19T02:14:49;11.90;1.00
774;DHT22;370;48.810;9.150;2023-05-19T02:17:19;11.90;1.00
774;DHT22;370;48.810;9.150;2023-05-19T02:19:48;11.90;1.00
774;DHT22;370;48.810;9.150;2023-05-19T02:22:16;11.90;1.00
774;DHT22;370;48.810;9.150;2023-05-19T02:24:42;11.80;1.00
774;DHT22;370;48.810;9.150;2023-05-19T02:27:10;11.90;1.00
774;DHT22;370;48.810;9.150;2023-05-19T02:29:37;11.90;1.00
774;DHT22;370;48.810;9.150;2023-05-19T02:32:05;11.80;1.00
774;DHT22;370;48.810;9.150;2023-05-19T02:34:32;11.80;1.00
774;DHT22;370;48.810;9.150;2023-05-19T02:37:00;11.80;1.00
774;DHT22;370;48.810;9.150;2023-05-19T02:39:27;11.80;1.00
774;DHT22;370;48.810;9.150;2023-05-19T02:41:59;11.80;1.00
774;DHT22;370;48.810;9.150;2023-05-19T02:44:26;11.90;1.00
774;DHT22;370;48.810;9.150;2023-05-19T02:46:52;11.80;1.00
774;DHT22;370;48.810;9.150;2023-05-19T02:49:19;11.80;1.00
774;DHT22;370;48.810;9.150;2023-05-19T02:51:46;11.80;1.00
774;DHT22;370;48.810;9.150;2023-05-19T02:54:14;11.80;1.00
774;DHT22;370;48.810;9.150;2023-05-19T02:56:41;11.70;1.00
774;DHT22;370;48.810;9.150;2023-05-19T02:59:08;11.70;1.00
774;DHT22;370;48.810;9.150;2023-05-19T03:01:34;11.70;1.00
774;DHT22;370;48.810;9.150;2023-05-19T03:04:02;11.70;1.00
774;DHT22;370;48.810;9.150;2023-05-19T03:06:28;11.60;1.00
774;DHT22;370;48.810;9.150;2023-05-19T03:08:57;11.50;1.00
774;DHT22;370;48.810;9.150;2023-05-19T03:11:25;11.60;1.00
774;DHT22;370;48.810;9.150;2023-05-19T03:13:52;11.50;1.00
774;DHT22;370;48.810;9.150;2023-05-19T03:16:19;11.40;1.00
774;DHT22;370;48.810;9.150;2023-05-19T03:18:46;11.40;1.00
774;DHT22;370;48.810;9.150;2023-05-19T03:21:13;11.40;1.00
774;DHT22;370;48.810;9.150;2023-05-19T03:23:40;11.30;1.00
774;DHT22;370;48.810;9.150;2023-05-19T03:26:06;11.30;1.00
774;DHT22;370;48.810;9.150;2023-05-19T03:28:35;11.20;1.00
774;DHT22;370;48.810;9.150;2023-05-19T03:31:02;11.20;1.00
774;DHT22;370;48.810;9.150;2023-05-19T03:33:29;11.20;1.00
774;DHT22;370;48.810;9.150;2023-05-19T03:35:56;11.20;1.00
774;DHT22;370;48.810;9.150;2023-05-19T03:38:23;11.10;1.00
774;DHT22;370;48.810;9.150;2023-05-19T03:40:50;11.10;1.00
774;DHT22;370;48.810;9.150;2023-05-19T03:43:17;11.00;1.00
774;DHT22;370;48.810;9.150;2023-05-19T03:45:46;11.00;1.00
774;DHT22;370;48.810;9.150;2023-05-19T03:48:13;10.90;1.10
774;DHT22;370;48.810;9.150;2023-05-19T03:50:40;10.90;1.10
774;DHT22;370;48.810;9.150;2023-05-19T03:53:08;10.80;1.00
774;DHT22;370;48.810;9.150;2023-05-19T03:55:35;10.80;1.40
774;DHT22;370;48.810;9.150;2023-05-19T03:58:02;10.60;2.30
774;DHT22;370;48.810;9.150;2023-05-19T04:00:29;10.60;2.80
774;DHT22;370;48.810;9.150;2023-05-19T04:02:57;10.50;3.20
774;DHT22;370;48.810;9.150;2023-05-19T04:05:25;10.40;4.20
774;DHT22;370;48.810;9.150;2023-05-19T04:07:51;10.40;4.70
774;DHT22;370;48.810;9.150;2023-05-19T04:10:18;10.30;5.20
774;DHT22;370;48.810;9.150;2023-05-19T04:12:45;10.30;5.20
774;DHT22;370;48.810;9.150;2023-05-19T04:15:12;10.30;5.40
774;DHT22;370;48.810;9.150;2023-05-19T04:17:39;10.30;5.20
774;DHT22;370;48.810;9.150;2023-05-19T04:20:08;10.30;6.70
774;DHT22;370;48.810;9.150;2023-05-19T04:22:35;10.30;5.30
774;DHT22;370;48.810;9.150;2023-05-19T04:25:02;10.30;6.10
774;DHT22;370;48.810;9.150;2023-05-19T04:27:29;10.40;5.30
774;DHT22;370;48.810;9.150;2023-05-19T04:29:56;10.40;5.30
774;DHT22;370;48.810;9.150;2023-05-19T04:32:23;10.50;5.40
774;DHT22;370;48.810;9.150;2023-05-19T04:34:50;10.40;5.30
774;DHT22;370;48.810;9.150;2023-05-19T04:37:19;10.50;5.10
774;DHT22;370;48.810;9.150;2023-05-19T04:39:45;10.60;4.30
774;DHT22;370;48.810;9.150;2023-05-19T04:42:12;10.60;3.70
774;DHT22;370;48.810;9.150;2023-05-19T04:44:43;10.70;3.50
774;DHT22;370;48.810;9.150;2023-05-19T04:47:10;10.80;2.50
774;DHT22;370;48.810;9.150;2023-05-19T04:49:37;10.90;1.80
774;DHT22;370;48.810;9.150;2023-05-19T04:52:05;11.00;1.70
774;DHT22;370;48.810;9.150;2023-05-19T04:54:37;11.10;1.80
774;DHT22;370;48.810;9.150;2023-05-19T04:57:04;11.20;1.30
774;DHT22;370;48.810;9.150;2023-05-19T04:59:31;11.30;1.00
774;DHT22;370;48.810;9.150;2023-05-19T05:01:58;11.40;1.00
774;DHT22;370;48.810;9.150;2023-05-19T05:04:25;11.50;1.00
774;DHT22;370;48.810;9.150;2023-05-19T05:06:52;11.60;1.00
774;DHT22;370;48.810;9.150;2023-05-19T05:09:19;11.70;1.00
774;DHT22;370;48.810;9.150;2023-05-19T05:11:48;11.90;1.00
774;DHT22;370;48.810;9.150;2023-05-19T05:14:16;12.10;1.00
774;DHT22;370;48.810;9.150;2023-05-19T05:16:43;12.10;1.00
774;DHT22;370;48.810;9.150;2023-05-19T05:19:11;12.30;1.00
774;DHT22;370;48.810;9.150;2023-05-19T05:21:38;12.50;1.00
774;DHT22;370;48.810;9.150;2023-05-19T05:24:06;12.60;1.00
774;DHT22;370;48.810;9.150;2023-05-19T05:26:34;12.80;1.00
774;DHT22;370;48.810;9.150;2023-05-19T05:29:03;12.90;1.00
774;DHT22;370;48.810;9.150;2023-05-19T05:31:29;13.10;1.00
774;DHT22;370;48.810;9.150;2023-05-19T05:33:57;13.30;1.00
774;DHT22;370;48.810;9.150;2023-05-19T05:36:23;13.30;1.00
774;DHT22;370;48.810;9.150;2023-05-19T05:38:50;13.40;1.00
774;DHT22;370;48.810;9.150;2023-05-19T05:41:17;13.50;1.00
774;DHT22;370;48.810;9.150;2023-05-19T05:43:44;13.70;1.00
774;DHT22;370;48.810;9.150;2023-05-19T05:46:12;13.80;1.00
774;DHT22;370;48.810;9.150;2023-05-19T05:48:39;13.90;1.00
774;DHT22;370;48.810;9.150;2023-05-19T05:51:07;14.00;1.00
774;DHT22;370;48.810;9.150;2023-05-19T05:53:39;14.10;1.00
774;DHT22;370;48.810;9.150;2023-05-19T05:56:09;14.10;1.00
774;DHT22;370;48.810;9.150;2023-05-19T05:58:36;14.20;1.00
774;DHT22;370;48.810;9.150;2023-05-19T06:01:05;14.30;1.00
774;DHT22;370;48.810;9.150;2023-05-19T06:03:37;14.40;1.00
774;DHT22;370;48.810;9.150;2023-05-19T06:06:04;14.40;1.00
774;DHT22;370;48.810;9.150;2023-05-19T06:08:31;14.50;1.00
774;DHT22;370;48.810;9.150;2023-05-19T06:10:58;14.70;1.00
774;DHT22;370;48.810;9.150;2023-05-19T06:13:25;14.80;1.00
774;DHT22;370;48.810;9.150;2023-05-19T06:15:52;15.10;1.00
774;DHT22;370;48.810;9.150;2023-05-19T06:18:18;15.30;1.00
774;DHT22;370;48.810;9.150;2023-05-19T06:20:47;15.50;1.00
774;DHT22;370;48.810;9.150;2023-05-19T06:23:13;15.60;1.00
774;DHT22;370;48.810;9.150;2023-05-19T06:25:40;15.90;1.00
774;DHT22;370;48.810;9.150;2023-05-19T06:28:07;16.00;1.00
774;DHT22;370;48.810;9.150;2023-05-19T06:30:34;16.20;1.00
774;DHT22;370;48.810;9.150;2023-05-19T06:33:01;16.50;1.00
774;DHT22;370;48.810;9.150;2023-05-19T06:35:28;16.80;1.00
774;DHT22;370;48.810;9.150;2023-05-19T06:37:57;17.00;1.00
774;DHT22;370;48.810;9.150;2023-05-19T06:40:24;17.40;1.00
774;DHT22;370;48.810;9.150;2023-05-19T06:42:50;17.60;1.00
774;DHT22;370;48.810;9.150;2023-05-19T06:45:17;17.60;1.00
774;DHT22;370;48.810;9.150;2023-05-19T06:47:46;17.80;1.00
774;DHT22;370;48.810;9.150;2023-05-19T06:50:13;17.90;1.00
774;DHT22;370;48.810;9.150;2023-05-19T06:52:40;17.90;1.00
774;DHT22;370;48.810;9.150;2023-05-19T06:55:10;17.80;1.00
774;DHT22;370;48.810;9.150;2023-05-19T06:57:37;17.90;1.00
774;DHT22;370;48.810;9.150;2023-05-19T07:00:05;18.10;1.00
774;DHT22;370;48.810;9.150;2023-05-19T07:02:34;17.90;1.00
774;DHT22;370;48.810;9.150;2023-05-19T07:05:01;17.90;1.00
774;DHT22;370;48.810;9.150;2023-05-19T07:07:28;18.00;1.00
774;DHT22;370;48.810;9.150;2023-05-19T07:09:55;18.30;1.00
774;DHT22;370;48.810;9.150;2023-05-19T07:12:23;18.80;1.00
774;DHT22;370;48.810;9.150;2023-05-19T07:14:51;19.00;1.00
774;DHT22;370;48.810;9.150;2023-05-19T07:17:17;19.10;1.00
774;DHT22;370;48.810;9.150;2023-05-19T07:19:44;19.30;1.00
774;DHT22;370;48.810;9.150;2023-05-19T07:22:11;19.70;1.00
774;DHT22;370;48.810;9.150;2023-05-19T07:24:38;19.80;1.00
774;DHT22;370;48.810;9.150;2023-05-19T07:27:05;19.70;1.00
774;DHT22;370;48.810;9.150;2023-05-19T07:29:33;19.40;1.00
774;DHT22;370;48.810;9.150;2023-05-19T07:32:00;19.30;1.00
774;DHT22;370;48.810;9.150;2023-05-19T07:34:27;19.10;1.00
774;DHT22;370;48.810;9.150;2023-05-19T07:36:54;19.10;1.00
774;DHT22;370;48.810;9.150;2023-05-19T07:39:21;18.80;1.00
774;DHT22;370;48.810;9.150;2023-05-19T07:41:50;18.80;1.00
774;DHT22;370;48.810;9.150;2023-05-19T07:44:20;18.60;1.00
774;DHT22;370;48.810;9.150;2023-05-19T07:46:48;18.70;1.00
774;DHT22;370;48.810;9.150;2023-05-19T07:49:15;18.70;1.00
774;DHT22;370;48.810;9.150;2023-05-19T07:51:42;18.90;1.00
774;DHT22;370;48.810;9.150;2023-05-19T07:54:09;18.90;1.00
774;DHT22;370;48.810;9.150;2023-05-19T07:56:45;19.00;1.00
774;DHT22;370;48.810;9.150;2023-05-19T08:05:58;19.70;1.00
774;DHT22;370;48.810;9.150;2023-05-19T08:08:25;20.00;1.00
774;DHT22;370;48.810;9.150;2023-05-19T08:10:51;19.90;1.00
774;DHT22;370;48.810;9.150;2023-05-19T08:13:18;19.80;1.00
774;DHT22;370;48.810;9.150;2023-05-19T08:15:46;19.70;1.00
774;DHT22;370;48.810;9.150;2023-05-19T08:18:13;19.40;1.00
774;DHT22;370;48.810;9.150;2023-05-19T08:20:40;19.20;1.00
774;DHT22;370;48.810;9.150;2023-05-19T08:23:08;19.20;1.00
774;DHT22;370;48.810;9.150;2023-05-19T08:25:35;19.10;1.00
774;DHT22;370;48.810;9.150;2023-05-19T08:28:02;18.90;1.00
774;DHT22;370;48.810;9.150;2023-05-19T08:30:29;18.60;1.00
774;DHT22;370;48.810;9.150;2023-05-19T08:32:56;18.60;1.00
774;DHT22;370;48.810;9.150;2023-05-19T08:35:23;18.60;1.00
774;DHT22;370;48.810;9.150;2023-05-19T08:37:50;18.70;1.00
774;DHT22;370;48.810;9.150;2023-05-19T08:40:19;18.50;1.00
774;DHT22;370;48.810;9.150;2023-05-19T08:42:46;18.30;1.00
774;DHT22;370;48.810;9.150;2023-05-19T08:45:13;18.20;1.00
774;DHT22;370;48.810;9.150;2023-05-19T08:47:41;18.30;1.00
774;DHT22;370;48.810;9.150;2023-05-19T08:50:10;18.40;1.00
774;DHT22;370;48.810;9.150;2023-05-19T08:52:43;18.50;1.00
774;DHT22;370;48.810;9.150;2023-05-19T08:55:21;18.50;1.00
774;DHT22;370;48.810;9.150;2023-05-19T08:57:52;18.40;1.00
774;DHT22;370;48.810;9.150;2023-05-19T09:00:19;18.60;1.00
774;DHT22;370;48.810;9.150;2023-05-19T09:02:48;18.60;1.00
774;DHT22;370;48.810;9.150;2023-05-19T09:05:16;18.70;1.00
774;DHT22;370;48.810;9.150;2023-05-19T09:07:43;18.70;1.00
774;DHT22;370;48.810;9.150;2023-05-19T09:10:10;18.90;1.00
774;DHT22;370;48.810;9.150;2023-05-19T09:12:43;18.90;1.00
774;DHT22;370;48.810;9.150;2023-05-19T09:15:11;19.20;1.00
774;DHT22;370;48.810;9.150;2023-05-19T09:17:38;19.40;1.00
774;DHT22;370;48.810;9.150;2023-05-19T09:20:06;19.20;1.00
774;DHT22;370;48.810;9.150;2023-05-19T09:22:40;19.20;1.00
774;DHT22;370;48.810;9.150;2023-05-19T09:25:18;19.40;1.00
774;DHT22;370;48.810;9.150;2023-05-19T09:27:47;19.40;1.00
774;DHT22;370;48.810;9.150;2023-05-19T09:30:15;19.50;1.00
774;DHT22;370;48.810;9.150;2023-05-19T09:32:42;19.10;1.00
774;DHT22;370;48.810;9.150;2023-05-19T09:35:10;18.90;1.00
774;DHT22;370;48.810;9.150;2023-05-19T09:37:41;19.00;1.00
774;DHT22;370;48.810;9.150;2023-05-19T09:40:08;19.20;1.00
774;DHT22;370;48.810;9.150;2023-05-19T09:42:37;19.20;1.00
774;DHT22;370;48.810;9.150;2023-05-19T09:45:06;19.30;1.00
774;DHT22;370;48.810;9.150;2023-05-19T09:47:34;19.30;1.00
774;DHT22;370;48.810;9.150;2023-05-19T09:50:04;19.10;1.00
774;DHT22;370;48.810;9.150;2023-05-19T09:52:34;19.10;1.00
774;DHT22;370;48.810;9.150;2023-05-19T09:55:01;19.30;1.00
774;DHT22;370;48.810;9.150;2023-05-19T09:57:33;19.20;1.00
774;DHT22;370;48.810;9.150;2023-05-19T10:00:02;19.20;1.00
774;DHT22;370;48.810;9.150;2023-05-19T10:02:39;19.40;1.00
774;DHT22;370;48.810;9.150;2023-05-19T10:05:07;19.40;1.00
774;DHT22;370;48.810;9.150;2023-05-19T10:07:36;19.70;1.00
774;DHT22;370;48.810;9.150;2023-05-19T10:10:09;20.00;1.00
774;DHT22;370;48.810;9.150;2023-05-19T10:12:37;20.00;1.00
774;DHT22;370;48.810;9.150;2023-05-19T10:15:06;20.10;1.00
774;DHT22;370;48.810;9.150;2023-05-19T10:17:37;19.90;1.00
774;DHT22;370;48.810;9.150;2023-05-19T10:20:05;19.90;1.00
774;DHT22;370;48.810;9.150;2023-05-19T10:22:33;20.00;1.00
774;DHT22;370;48.810;9.150;2023-05-19T10:25:00;20.10;1.00
774;DHT22;370;48.810;9.150;2023-05-19T10:27:27;20.10;1.00
774;DHT22;370;48.810;9.150;2023-05-19T10:29:56;20.30;1.00
774;DHT22;370;48.810;9.150;2023-05-19T10:32:27;20.30;1.00
774;DHT22;370;48.810;9.150;2023-05-19T10:38:11;19.90;1.00
774;DHT22;370;48.810;9.150;2023-05-19T10:40:49;20.20;1.00
774;DHT22;370;48.810;9.150;2023-05-19T10:43:24;20.30;1.00
774;DHT22;370;48.810;9.150;2023-05-19T10:45:56;20.30;1.00
774;DHT22;370;48.810;9.150;2023-05-19T10:48:23;20.30;1.00
774;DHT22;370;48.810;9.150;2023-05-19T10:50:53;20.40;1.00
774;DHT22;370;48.810;9.150;2023-05-19T10:53:29;20.10;1.00
774;DHT22;370;48.810;9.150;2023-05-19T10:55:57;19.70;1.00
774;DHT22;370;48.810;9.150;2023-05-19T10:58:49;19.60;1.00
774;DHT22;370;48.810;9.150;2023-05-19T11:01:18;19.50;1.00
774;DHT22;370;48.810;9.150;2023-05-19T11:03:49;19.20;1.00
774;DHT22;370;48.810;9.150;2023-05-19T11:06:19;19.10;1.00
774;DHT22;370;48.810;9.150;2023-05-19T11:08:51;18.90;1.00
774;DHT22;370;48.810;9.150;2023-05-19T11:11:18;18.80;1.00
774;DHT22;370;48.810;9.150;2023-05-19T11:13:47;18.70;1.00
774;DHT22;370;48.810;9.150;2023-05-19T11:16:14;18.70;1.00
774;DHT22;370;48.810;9.150;2023-05-19T11:18:47;18.80;1.00
774;DHT22;370;48.810;9.150;2023-05-19T11:21:14;18.70;1.00
774;DHT22;370;48.810;9.150;2023-05-19T11:23:42;18.70;1.00
774;DHT22;370;48.810;9.150;2023-05-19T11:26:09;18.60;1.00
774;DHT22;370;48.810;9.150;2023-05-19T11:28:36;18.50;1.00
774;DHT22;370;48.810;9.150;2023-05-19T11:31:04;18.20;1.00
774;DHT22;370;48.810;9.150;2023-05-19T11:33:34;18.20;1.00
774;DHT22;370;48.810;9.150;2023-05-19T11:36:01;18.30;1.00
774;DHT22;370;48.810;9.150;2023-05-19T11:38:30;18.30;1.00
774;DHT22;370;48.810;9.150;2023-05-19T11:40:59;18.50;1.00
774;DHT22;370;48.810;9.150;2023-05-19T11:43:26;18.80;1.00
774;DHT22;370;48.810;9.150;2023-05-19T11:45:53;19.00;1.00
774;DHT22;370;48.810;9.150;2023-05-19T11:48:20;19.10;1.00
774;DHT22;370;48.810;9.150;2023-05-19T11:50:47;19.10;1.00
774;DHT22;370;48.810;9.150;2023-05-19T11:53:14;19.20;1.00
774;DHT22;370;48.810;9.150;2023-05-19T11:55:44;19.20;1.00
774;DHT22;370;48.810;9.150;2023-05-19T11:58:13;19.40;1.00
774;DHT22;370;48.810;9.150;2023-05-19T12:00:41;19.40;1.00
774;DHT22;370;48.810;9.150;2023-05-19T12:03:10;19.40;1.00
774;DHT22;370;48.810;9.150;2023-05-19T12:05:39;19.40;1.00
774;DHT22;370;48.810;9.150;2023-05-19T12:08:06;19.10;1.00
774;DHT22;370;48.810;9.150;2023-05-19T12:10:33;18.90;1.00
774;DHT22;370;48.810;9.150;2023-05-19T12:13:00;19.00;1.00
774;DHT22;370;48.810;9.150;2023-05-19T12:15:30;19.20;1.00
774;DHT22;370;48.810;9.150;2023-05-19T12:17:59;19.20;1.00
774;DHT22;370;48.810;9.150;2023-05-19T12:20:27;19.30;1.00
774;DHT22;370;48.810;9.150;2023-05-19T12:22:57;19.30;1.00
774;DHT22;370;48.810;9.150;2023-05-19T12:25:24;19.50;1.00
774;DHT22;370;48.810;9.150;2023-05-19T12:27:51;19.60;1.00
774;DHT22;370;48.810;9.150;2023-05-19T12:30:25;19.70;1.00
774;DHT22;370;48.810;9.150;2023-05-19T12:32:55;19.80;1.00
774;DHT22;370;48.810;9.150;2023-05-19T12:35:25;19.90;1.00
774;DHT22;370;48.810;9.150;2023-05-19T12:37:52;20.10;1.00
774;DHT22;370;48.810;9.150;2023-05-19T12:40:19;20.20;1.00
774;DHT22;370;48.810;9.150;2023-05-19T12:42:46;20.20;1.00
774;DHT22;370;48.810;9.150;2023-05-19T12:45:19;19.90;1.00
774;DHT22;370;48.810;9.150;2023-05-19T12:47:47;19.50;1.00
774;DHT22;370;48.810;9.150;2023-05-19T12:50:16;19.60;1.00
774;DHT22;370;48.810;9.150;2023-05-19T12:52:45;19.40;1.00
774;DHT22;370;48.810;9.150;2023-05-19T12:55:13;19.30;1.00
774;DHT22;370;48.810;9.150;2023-05-19T12:57:42;19.20;1.00
774;DHT22;370;48.810;9.150;2023-05-19T13:00:13;19.00;1.00
774;DHT22;370;48.810;9.150;2023-05-19T13:02:58;18.70;1.00
774;DHT22;370;48.810;9.150;2023-05-19T13:05:28;18.30;1.00
774;DHT22;370;48.810;9.150;2023-05-19T13:07:56;18.30;1.00
774;DHT22;370;48.810;9.150;2023-05-19T13:10:23;18.20;1.00
774;DHT22;370;48.810;9.150;2023-05-19T13:12:52;18.10;1.00
774;DHT22;370;48.810;9.150;2023-05-19T13:15:21;18.10;1.00
774;DHT22;370;48.810;9.150;2023-05-19T13:17:48;18.10;1.00
774;DHT22;370;48.810;9.150;2023-05-19T13:20:15;18.20;1.00
774;DHT22;370;48.810;9.150;2023-05-19T13:22:43;18.20;1.00
774;DHT22;370;48.810;9.150;2023-05-19T13:25:10;18.10;1.00
774;DHT22;370;48.810;9.150;2023-05-19T13:27:37;18.10;1.00
774;DHT22;370;48.810;9.150;2023-05-19T13:30:05;18.10;1.00
774;DHT22;370;48.810;9.150;2023-05-19T13:32:33;18.30;1.00
774;DHT22;370;48.810;9.150;2023-05-19T13:35:00;18.70;1.00
774;DHT22;370;48.810;9.150;2023-05-19T13:37:27;19.00;1.00
774;DHT22;370;48.810;9.150;2023-05-19T13:39:55;19.30;1.00
774;DHT22;370;48.810;9.150;2023-05-19T13:42:22;19.50;1.00
774;DHT22;370;48.810;9.150;2023-05-19T13:44:53;19.50;1.00
774;DHT22;370;48.810;9.150;2023-05-19T13:47:20;19.50;1.00
774;DHT22;370;48.810;9.150;2023-05-19T13:49:47;19.40;1.00
774;DHT22;370;48.810;9.150;2023-05-19T13:52:14;19.20;1.00
774;DHT22;370;48.810;9.150;2023-05-19T13:54:40;19.00;1.00
774;DHT22;370;48.810;9.150;2023-05-19T13:57:09;18.80;1.00
774;DHT22;370;48.810;9.150;2023-05-19T13:59:36;18.80;1.00
774;DHT22;370;48.810;9.150;2023-05-19T14:02:03;18.50;1.00
774;DHT22;370;48.810;9.150;2023-05-19T14:04:30;18.40;1.00
774;DHT22;370;48.810;9.150;2023-05-19T14:06:57;18.30;1.00
774;DHT22;370;48.810;9.150;2023-05-19T14:09:24;18.10;1.00
774;DHT22;370;48.810;9.150;2023-05-19T14:11:51;18.10;1.00
774;DHT22;370;48.810;9.150;2023-05-19T14:14:19;18.00;1.00
774;DHT22;370;48.810;9.150;2023-05-19T14:16:46;18.00;1.00
774;DHT22;370;48.810;9.150;2023-05-19T14:19:13;17.90;1.00
774;DHT22;370;48.810;9.150;2023-05-19T14:21:40;17.90;1.00
774;DHT22;370;48.810;9.150;2023-05-19T14:24:07;18.10;1.00
774;DHT22;370;48.810;9.150;2023-05-19T14:26:34;18.30;1.00
774;DHT22;370;48.810;9.150;2023-05-19T14:29:01;18.60;1.00
774;DHT22;370;48.810;9.150;2023-05-19T14:31:29;19.00;1.00
774;DHT22;370;48.810;9.150;2023-05-19T14:33:56;19.40;1.00
774;DHT22;370;48.810;9.150;2023-05-19T14:36:22;19.60;1.00
774;DHT22;370;48.810;9.150;2023-05-19T14:38:49;19.60;1.00
774;DHT22;370;48.810;9.150;2023-05-19T14:41:16;19.60;1.00
774;DHT22;370;48.810;9.150;2023-05-19T14:43:43;19.90;1.00
774;DHT22;370;48.810;9.150;2023-05-19T14:46:10;19.80;1.00
774;DHT22;370;48.810;9.150;2023-05-19T14:48:38;19.80;1.00
774;DHT22;370;48.810;9.150;2023-05-19T14:51:05;19.70;1.00
774;DHT22;370;48.810;9.150;2023-05-19T14:53:32;19.70;1.00
774;DHT22;370;48.810;9.150;2023-05-19T14:56:04;19.70;1.00
774;DHT22;370;48.810;9.150;2023-05-19T14:58:34;19.60;1.00
774;DHT22;370;48.810;9.150;2023-05-19T15:01:01;19.50;1.00
774;DHT22;370;48.810;9.150;2023-05-19T15:03:28;19.40;1.00
774;DHT22;370;48.810;9.150;2023-05-19T15:05:56;19.40;1.00
774;DHT22;370;48.810;9.150;2023-05-19T15:08:23;19.10;1.00
774;DHT22;370;48.810;9.150;2023-05-19T15:10:50;19.00;1.00
774;DHT22;370;48.810;9.150;2023-05-19T15:13:22;18.90;1.00
774;DHT22;370;48.810;9.150;2023-05-19T15:15:52;18.60;1.00
774;DHT22;370;48.810;9.150;2023-05-19T15:18:19;18.50;1.00
774;DHT22;370;48.810;9.150;2023-05-19T15:20:47;18.50;1.00
774;DHT22;370;48.810;9.150;2023-05-19T15:23:15;18.40;1.00
774;DHT22;370;48.810;9.150;2023-05-19T15:25:42;18.50;1.00
774;DHT22;370;48.810;9.150;2023-05-19T15:28:10;18.30;1.00
774;DHT22;370;48.810;9.150;2023-05-19T15:30:37;18.30;1.00
774;DHT22;370;48.810;9.150;2023-05-19T15:33:04;18.50;1.00
774;DHT22;370;48.810;9.150;2023-05-19T15:35:31;18.80;1.00
774;DHT22;370;48.810;9.150;2023-05-19T15:37:58;19.10;1.00
774;DHT22;370;48.810;9.150;2023-05-19T15:40:34;19.20;1.00
774;DHT22;370;48.810;9.150;2023-05-19T15:43:01;19.50;1.00
774;DHT22;370;48.810;9.150;2023-05-19T15:45:28;19.60;1.00
774;DHT22;370;48.810;9.150;2023-05-19T15:47:55;19.40;1.00
774;DHT22;370;48.810;9.150;2023-05-19T15:50:21;19.40;1.00
774;DHT22;370;48.810;9.150;2023-05-19T15:52:50;19.30;1.00
774;DHT22;370;48.810;9.150;2023-05-19T15:55:17;19.20;1.00
774;DHT22;370;48.810;9.150;2023-05-19T15:57:45;19.20;1.00
774;DHT22;370;48.810;9.150;2023-05-19T16:00:13;19.30;1.00
774;DHT22;370;48.810;9.150;2023-05-19T16:02:40;19.40;1.00
774;DHT22;370;48.810;9.150;2023-05-19T16:05:07;19.60;1.00
774;DHT22;370;48.810;9.150;2023-05-19T16:07:34;19.70;1.00
774;DHT22;370;48.810;9.150;2023-05-19T16:10:05;19.70;1.00
774;DHT22;370;48.810;9.150;2023-05-19T16:12:32;19.60;1.00
774;DHT22;370;48.810;9.150;2023-05-19T16:15:00;19.70;1.00
774;DHT22;370;48.810;9.150;2023-05-19T16:17:28;19.60;1.00
774;DHT22;370;48.810;9.150;2023-05-19T16:19:56;19.60;1.00
774;DHT22;370;48.810;9.150;2023-05-19T16:22:23;19.80;1.00
774;DHT22;370;48.810;9.150;2023-05-19T16:24:50;19.70;1.00
774;DHT22;370;48.810;9.150;2023-05-19T16:27:17;19.80;1.00
774;DHT22;370;48.810;9.150;2023-05-19T16:29:44;19.90;1.00
774;DHT22;370;48.810;9.150;2023-05-19T16:32:13;19.80;1.00
774;DHT22;370;48.810;9.150;2023-05-19T16:34:40;19.90;1.00
774;DHT22;370;48.810;9.150;2023-05-19T16:37:07;20.00;1.00
774;DHT22;370;48.810;9.150;2023-05-19T16:39:35;20.10;1.00
774;DHT22;370;48.810;9.150;2023-05-19T16:42:02;20.10;1.00
774;DHT22;370;48.810;9.150;2023-05-19T16:44:29;20.10;1.00
774;DHT22;370;48.810;9.150;2023-05-19T16:46:56;20.20;1.00
774;DHT22;370;48.810;9.150;2023-05-19T16:49:24;20.30;1.00
774;DHT22;370;48.810;9.150;2023-05-19T16:51:51;20.40;1.00
774;DHT22;370;48.810;9.150;2023-05-19T16:54:18;20.40;1.00
774;DHT22;370;48.810;9.150;2023-05-19T16:56:46;20.40;1.00
774;DHT22;370;48.810;9.150;2023-05-19T16:59:13;20.40;1.00
774;DHT22;370;48.810;9.150;2023-05-19T17:01:39;20.40;1.00
774;DHT22;370;48.810;9.150;2023-05-19T17:04:06;20.30;1.00
774;DHT22;370;48.810;9.150;2023-05-19T17:06:35;20.10;1.00
774;DHT22;370;48.810;9.150;2023-05-19T17:09:01;20.20;1.00
774;DHT22;370;48.810;9.150;2023-05-19T17:11:28;20.30;1.00
774;DHT22;370;48.810;9.150;2023-05-19T17:13:55;20.20;1.00
774;DHT22;370;48.810;9.150;2023-05-19T17:16:22;20.20;1.00
774;DHT22;370;48.810;9.150;2023-05-19T17:18:48;20.00;1.00
774;DHT22;370;48.810;9.150;2023-05-19T17:21:15;19.80;1.00